^^
B2 Weather Station Historical Data
Daily Summary for December 9, 2018 Units:  English    Metric   Both
Daily Weekly Monthly Yearly Custom
  High: Low: Average:
Temperature: 34.7 °F 12.6 °F 22.9 °F
Dew Point: 25.3 °F 10.3 °F 18.9 °F
Humidity: 93% 65% 85%
Wind Speed: 10.4mph 0mph 3.5mph
Wind Gust: 7mph - -
Wind- - WSW
Pressure: 30.50 in 30.34 in -
Precipitation: 0 in    
Historical Graphs
 
 
Tabular Data for December 9, 2018
Time Temperature Dew Point Pressure Wind Wind Speed Wind Gust Humidity Rainfall Rate (Hourly) solar
00:04 15.5 °F 13.1 °F 30.50 in NNW 4.6 mph 3.2 mph 90% 0 in 0.00 W/m2
00:09 15.4 °F 13 °F 30.50 in NNW 4 mph 2.9 mph 90% 0 in 0.00 W/m2
00:14 15.3 °F 12.9 °F 30.50 in NNW 4.6 mph 3.5 mph 90% 0 in 0.00 W/m2
00:19 15.3 °F 12.9 °F 30.50 in North 4.6 mph 3.2 mph 90% 0 in 0.00 W/m2
00:24 15.4 °F 13.2 °F 30.49 in NNW 5 mph 4 mph 91% 0 in 0.00 W/m2
00:29 15.5 °F 13.1 °F 30.50 in NNW 5 mph 4.5 mph 90% 0 in 0.00 W/m2
00:34 15.4 °F 13 °F 30.50 in NNW 5 mph 4.4 mph 90% 0 in 0.00 W/m2
00:39 15.2 °F 12.8 °F 30.50 in NNW 4 mph 3.4 mph 90% 0 in 0.00 W/m2
00:44 15 °F 12.6 °F 30.49 in NNW 3.5 mph 2.8 mph 90% 0 in 0.00 W/m2
00:49 15 °F 12.6 °F 30.49 in NNW 3.5 mph 2.5 mph 90% 0 in 0.00 W/m2
00:54 15 °F 12.6 °F 30.49 in NNW 3.5 mph 2.5 mph 90% 0 in 0.00 W/m2
00:59 15.1 °F 12.7 °F 30.49 in NNW 3.5 mph 2.4 mph 90% 0 in 0.00 W/m2
01:04 15.1 °F 12.7 °F 30.49 in NNW 2.3 mph 1.3 mph 90% 0 in 0.00 W/m2
01:09 15 °F 12.6 °F 30.50 in NNW 2.3 mph 1.7 mph 90% 0 in 0.00 W/m2
01:14 14.8 °F 12.4 °F 30.49 in NNW 2.3 mph 0.6 mph 90% 0 in 0.00 W/m2
01:19 14.5 °F 12.1 °F 30.50 in Calm     90% 0 in 0.00 W/m2
01:24 14.4 °F 12 °F 30.50 in NNW 3.5 mph 1.5 mph 90% 0 in 0.00 W/m2
01:29 14.5 °F 12.1 °F 30.50 in NNW 3.5 mph 1.9 mph 90% 0 in 0.00 W/m2
01:34 14.6 °F 12.2 °F 30.50 in NNW 3.5 mph 1 mph 90% 0 in 0.00 W/m2
01:39 14.6 °F 12.2 °F 30.50 in NNW 3.5 mph 1.5 mph 90% 0 in 0.00 W/m2
01:44 14.7 °F 12.3 °F 30.50 in Calm     90% 0 in 0.00 W/m2
01:49 14.4 °F 11.8 °F 30.50 in Calm     89% 0 in 0.00 W/m2
01:54 14.3 °F 11.7 °F 30.50 in Calm     89% 0 in 0.00 W/m2
01:59 14.2 °F 11.6 °F 30.49 in Calm     89% 0 in 0.00 W/m2
02:04 14.2 °F 11.6 °F 30.49 in Calm     89% 0 in 0.00 W/m2
02:09 14.3 °F 11.7 °F 30.49 in Calm     89% 0 in 0.00 W/m2
02:14 14.4 °F 11.8 °F 30.49 in Calm     89% 0 in 0.00 W/m2
02:19 14.4 °F 11.8 °F 30.49 in Calm     89% 0 in 0.00 W/m2
02:24 14.3 °F 11.7 °F 30.49 in Calm     89% 0 in 0.00 W/m2
02:29 14.3 °F 11.7 °F 30.49 in Calm     89% 0 in 0.00 W/m2
02:34 14.2 °F 11.6 °F 30.49 in NNW 2 mph 1 mph 89% 0 in 0.00 W/m2
02:39 14.2 °F 11.6 °F 30.49 in NNW 1.2 mph 1 mph 89% 0 in 0.00 W/m2
02:44 14.1 °F 11.5 °F 30.49 in NNW 3.5 mph 1.1 mph 89% 0 in 0.00 W/m2
02:49 14.2 °F 11.8 °F 30.48 in NNW 1.2 mph 0.1 mph 90% 0 in 0.00 W/m2
02:54 14.3 °F 11.9 °F 30.48 in Calm     90% 0 in 0.00 W/m2
02:59 14.3 °F 11.9 °F 30.48 in NNW 2.3 mph 1.4 mph 90% 0 in 0.00 W/m2
03:04 14.4 °F 12 °F 30.48 in NNW 3 mph 1.8 mph 90% 0 in 0.00 W/m2
03:09 14.6 °F 12.2 °F 30.47 in NNW 3.5 mph 1.4 mph 90% 0 in 0.00 W/m2
03:14 14.6 °F 12.2 °F 30.47 in NNW 3.5 mph 2.1 mph 90% 0 in 0.00 W/m2
03:19 14.4 °F 12 °F 30.47 in NNW 3.5 mph 3 mph 90% 0 in 0.00 W/m2
03:24 14.3 °F 11.9 °F 30.47 in NNW 4 mph 3.2 mph 90% 0 in 0.00 W/m2
03:29 14.1 °F 11.7 °F 30.47 in NNW 3.5 mph 2.7 mph 90% 0 in 0.00 W/m2
03:34 14 °F 11.6 °F 30.47 in NNW 4.6 mph 4.1 mph 90% 0 in 0.00 W/m2
03:39 13.9 °F 11.8 °F 30.46 in NNW 4 mph 4.1 mph 91% 0 in 0.00 W/m2
03:44 13.9 °F 11.8 °F 30.46 in NNW 4.6 mph 3.2 mph 91% 0 in 0.00 W/m2
03:49 13.9 °F 11.8 °F 30.46 in NNW 4.6 mph 4.1 mph 91% 0 in 0.00 W/m2
03:54 14 °F 11.9 °F 30.46 in NNW 3.5 mph 3.5 mph 91% 0 in 0.00 W/m2
03:59 14 °F 11.9 °F 30.45 in NNW 3.5 mph 3.1 mph 91% 0 in 0.00 W/m2
04:04 13.8 °F 11.7 °F 30.45 in NNW 3.5 mph 2.8 mph 91% 0 in 0.00 W/m2
04:09 13.7 °F 11.6 °F 30.45 in NNW 3.5 mph 2.7 mph 91% 0 in 0.00 W/m2
04:14 13.5 °F 11.4 °F 30.45 in North 3.5 mph 2.3 mph 91% 0 in 0.00 W/m2
04:19 13.3 °F 11.2 °F 30.45 in North 4 mph 2.6 mph 91% 0 in 0.00 W/m2
04:24 13 °F 10.9 °F 30.45 in North 3.5 mph 1.8 mph 91% 0 in 0.00 W/m2
04:29 12.8 °F 10.4 °F 30.44 in North 3.5 mph 2.3 mph 90% 0 in 0.00 W/m2
04:34 12.7 °F 10.3 °F 30.44 in North 2.3 mph 1.8 mph 90% 0 in 0.00 W/m2
04:39 12.6 °F 10.5 °F 30.45 in North 3.5 mph 1.7 mph 91% 0 in 0.00 W/m2
04:44 12.6 °F 10.5 °F 30.44 in North 3.5 mph 1.7 mph 91% 0 in 0.00 W/m2
04:49 12.6 °F 10.5 °F 30.44 in North 3.5 mph 1.8 mph 91% 0 in 0.00 W/m2
04:54 12.6 °F 10.5 °F 30.45 in North 3.5 mph 2.8 mph 91% 0 in 0.00 W/m2
04:59 12.8 °F 10.7 °F 30.45 in North 3.5 mph 2.6 mph 91% 0 in 0.00 W/m2
05:04 12.9 °F 10.8 °F 30.45 in North 3.5 mph 2.1 mph 91% 0 in 0.00 W/m2
05:09 13 °F 10.9 °F 30.45 in North 2.3 mph 1.9 mph 91% 0 in 0.00 W/m2
05:14 13.1 °F 11 °F 30.45 in North 3.5 mph 1.9 mph 91% 0 in 0.00 W/m2
05:19 13.2 °F 11.1 °F 30.45 in North 2.3 mph 1.7 mph 91% 0 in 0.00 W/m2
05:24 13.2 °F 11.1 °F 30.45 in North 3.5 mph 1.7 mph 91% 0 in 0.00 W/m2
05:29 13.1 °F 11 °F 30.45 in North 3.5 mph 1.9 mph 91% 0 in 0.00 W/m2
05:34 13.2 °F 11.1 °F 30.45 in North 3.5 mph 2.3 mph 91% 0 in 0.00 W/m2
05:39 13.1 °F 11 °F 30.45 in North 3.5 mph 2.4 mph 91% 0 in 0.00 W/m2
05:44 13.3 °F 11.2 °F 30.45 in North 3.5 mph 3 mph 91% 0 in 0.00 W/m2
05:49 13.4 °F 11.3 °F 30.45 in NNW 3.5 mph 3 mph 91% 0 in 0.00 W/m2
05:54 13.3 °F 11.2 °F 30.46 in NNW 3.5 mph 2.1 mph 91% 0 in 0.00 W/m2
05:59 13.1 °F 11 °F 30.46 in NNW 3.5 mph 2.3 mph 91% 0 in 0.00 W/m2
06:04 13.1 °F 11 °F 30.45 in NNW 3.5 mph 2.1 mph 91% 0 in 0.00 W/m2
06:09 13.1 °F 11 °F 30.45 in NNW 2.3 mph 1.4 mph 91% 0 in 0.00 W/m2
06:14 13.2 °F 11.1 °F 30.45 in NNW 3.5 mph 1.4 mph 91% 0 in 0.00 W/m2
06:19 13.2 °F 11.1 °F 30.45 in NNW 1.2 mph   91% 0 in 0.00 W/m2
06:24 13.2 °F 11.1 °F 30.45 in NNW 2.3 mph 2 mph 91% 0 in 0.00 W/m2
06:29 13.1 °F 11 °F 30.45 in NNW 3.5 mph 2 mph 91% 0 in 0.00 W/m2
06:34 13.1 °F 11 °F 30.45 in NNW 3.5 mph 1.6 mph 91% 0 in 0.00 W/m2
06:39 13.1 °F 11 °F 30.45 in NNW 2.3 mph 1.6 mph 91% 0 in 0.00 W/m2
06:44 13.1 °F 11 °F 30.45 in NNW 2.3 mph 1.5 mph 91% 0 in 0.00 W/m2
06:49 13 °F 10.9 °F 30.45 in NNW 3.5 mph 2 mph 91% 0 in 0.00 W/m2
06:54 12.9 °F 10.8 °F 30.45 in NNW 3.5 mph 2.1 mph 91% 0 in 0.00 W/m2
06:59 12.9 °F 10.8 °F 30.45 in NNW 3.5 mph 2.6 mph 91% 0 in 0.00 W/m2
07:04 12.9 °F 10.8 °F 30.45 in NNW 3.5 mph 1.8 mph 91% 0 in 0.00 W/m2
07:09 12.8 °F 10.7 °F 30.45 in NNW 3.5 mph 1.7 mph 91% 0 in 0.00 W/m2
07:14 12.7 °F 10.6 °F 30.45 in NNW 1.2 mph 0.6 mph 91% 0 in 5.00 W/m2
07:19 12.6 °F 10.5 °F 30.45 in NNW 2.3 mph 1.1 mph 91% 0 in 7.00 W/m2
07:24 12.6 °F 10.5 °F 30.45 in NNW 2.3 mph 1.4 mph 91% 0 in 16.00 W/m2
07:29 12.7 °F 10.6 °F 30.44 in NNW 2.3 mph 1.8 mph 91% 0 in 16.00 W/m2
07:34 13.1 °F 11 °F 30.44 in NNW 3.5 mph 2.1 mph 91% 0 in 23.00 W/m2
07:39 13.5 °F 11.6 °F 30.44 in NNW 3.5 mph 1.7 mph 92% 0 in 28.00 W/m2
07:44 14 °F 12.1 °F 30.44 in NNW 2.3 mph 1.4 mph 92% 0 in 33.00 W/m2
07:49 14.5 °F 12.6 °F 30.44 in NNW 3.5 mph 2.1 mph 92% 0 in 42.00 W/m2
07:54 14.8 °F 12.9 °F 30.45 in NNW 3.5 mph 2.8 mph 92% 0 in 51.00 W/m2
07:59 15.3 °F 13.4 °F 30.45 in North 3.5 mph 3 mph 92% 0 in 63.00 W/m2
08:04 15.8 °F 13.9 °F 30.45 in NNW 3.5 mph 3 mph 92% 0 in 76.00 W/m2
08:09 16.2 °F 14.3 °F 30.45 in NNW 4.6 mph 2.8 mph 92% 0 in 86.00 W/m2
08:14 16.8 °F 15.1 °F 30.45 in North 3.5 mph 2.8 mph 93% 0 in 98.00 W/m2
08:19 17.7 °F 16 °F 30.45 in North 5.8 mph 4 mph 93% 0 in 113.00 W/m2
08:24 18.5 °F 16.8 °F 30.45 in North 5.8 mph 4 mph 93% 0 in 125.00 W/m2
08:29 19 °F 17.3 °F 30.45 in NNE 4.6 mph 3.8 mph 93% 0 in 137.00 W/m2
08:34 19.7 °F 18 °F 30.45 in NNE 4.6 mph 3.9 mph 93% 0 in 149.00 W/m2
08:39 20.5 °F 18.8 °F 30.45 in NNE 4.6 mph 3.2 mph 93% 0 in 158.00 W/m2
08:44 21.3 °F 19.6 °F 30.45 in NNE 4.6 mph 3.4 mph 93% 0 in 172.00 W/m2
08:49 22.1 °F 20.4 °F 30.45 in NE 5 mph 4.3 mph 93% 0 in 185.00 W/m2
08:54 22.6 °F 20.9 °F 30.45 in NE 4.6 mph 3.6 mph 93% 0 in 199.00 W/m2
08:59 23.1 °F 21.4 °F 30.45 in NE 5 mph 3.5 mph 93% 0 in 213.00 W/m2
09:04 23.6 °F 21.6 °F 30.45 in NE 4.6 mph 3.4 mph 92% 0 in 225.00 W/m2
09:09 24 °F 22 °F 30.45 in NE 5.8 mph 3.9 mph 92% 0 in 243.00 W/m2
09:14 24.3 °F 22.3 °F 30.45 in NE 5.8 mph 3.9 mph 92% 0 in 258.00 W/m2
09:19 24.7 °F 22.7 °F 30.45 in NE 6.9 mph 5 mph 92% 0 in 269.00 W/m2
09:24 25.2 °F 23.2 °F 30.45 in NE 6.9 mph 4.1 mph 92% 0 in 278.00 W/m2
09:29 25.6 °F 23.3 °F 30.45 in ENE 5.8 mph 4.2 mph 91% 0 in 288.00 W/m2
09:34 25.8 °F 23.3 °F 30.45 in NE 6.9 mph 4.6 mph 90% 0 in 301.00 W/m2
09:39 26.1 °F 23.6 °F 30.45 in ENE 7 mph 5.2 mph 90% 0 in 311.00 W/m2
09:44 26.5 °F 24 °F 30.45 in ENE 8.1 mph 6.3 mph 90% 0 in 323.00 W/m2
09:49 26.7 °F 23.9 °F 30.45 in NE 8.1 mph 5.4 mph 89% 0 in 327.00 W/m2
09:54 26.9 °F 23.8 °F 30.45 in NE 9.2 mph 5.4 mph 88% 0 in 341.00 W/m2
09:59 27 °F 23.9 °F 30.45 in NE 7 mph 7 mph 88% 0 in 346.00 W/m2
10:04 27.4 °F 24 °F 30.44 in NNE 5.8 mph 5.6 mph 87% 0 in 367.00 W/m2
10:09 27.6 °F 24.2 °F 30.44 in NE 6.9 mph 4.5 mph 87% 0 in 378.00 W/m2
10:14 27.8 °F 24.2 °F 30.44 in NE 6.9 mph 5.1 mph 86% 0 in 392.00 W/m2
10:19 28.1 °F 24.5 °F 30.44 in NNE 9.2 mph 6.4 mph 86% 0 in 404.00 W/m2
10:24 28.2 °F 24.3 °F 30.44 in NE 8.1 mph 5 mph 85% 0 in 410.00 W/m2
10:29 28.5 °F 24.3 °F 30.44 in NNE 6.9 mph 5.7 mph 84% 0 in 424.00 W/m2
10:34 28.7 °F 24.2 °F 30.43 in NE 8.1 mph 5.8 mph 83% 0 in 432.00 W/m2
10:39 28.9 °F 24.4 °F 30.43 in NE 6.9 mph 5.4 mph 83% 0 in 429.00 W/m2
10:44 29.2 °F 24.7 °F 30.43 in NE 6.9 mph 4.2 mph 83% 0 in 431.00 W/m2
10:49 29.2 °F 24.1 °F 30.43 in NNE 8.1 mph 4.9 mph 81% 0 in 439.00 W/m2
10:54 29.6 °F 24.8 °F 30.42 in NE 5.8 mph 4.7 mph 82% 0 in 441.00 W/m2
10:59 29.7 °F 24.6 °F 30.42 in NE 8.1 mph 6.9 mph 81% 0 in 445.00 W/m2
11:04 29.9 °F 24.5 °F 30.42 in NNE 8 mph 5.1 mph 80% 0 in 448.00 W/m2
11:09 30 °F 24.3 °F 30.41 in NE 5.8 mph 4.7 mph 79% 0 in 450.00 W/m2
11:14 30.5 °F 25.1 °F 30.41 in NNE 6 mph 3.3 mph 80% 0 in 457.00 W/m2
11:19 30.9 °F 25.2 °F 30.40 in NNE 6.9 mph 4.2 mph 79% 0 in 457.00 W/m2
11:24 31.1 °F 25 °F 30.40 in NE 5.8 mph 4.8 mph 78% 0 in 462.00 W/m2
11:29 31.2 °F 25.1 °F 30.40 in NNE 6.9 mph 5.1 mph 78% 0 in 464.00 W/m2
11:34 31.2 °F 24.8 °F 30.40 in ENE 6.9 mph 4.4 mph 77% 0 in 462.00 W/m2
11:39 31.7 °F 25.3 °F 30.40 in NNE 6.9 mph 4.6 mph 77% 0 in 468.00 W/m2
11:44 32 °F 25.3 °F 30.40 in North 5 mph 4.6 mph 76% 0 in 468.00 W/m2
11:49 32.1 °F 24.7 °F 30.40 in North 9 mph 5.8 mph 74% 0 in 469.00 W/m2
11:54 31.9 °F 24.9 °F 30.39 in North 6.9 mph 5.8 mph 75% 0 in 464.00 W/m2
11:59 31.9 °F 24.9 °F 30.39 in North 8.1 mph 6.9 mph 75% 0 in 462.00 W/m2
12:04 32 °F 25 °F 30.39 in NNE 6.9 mph 5.6 mph 75% 0 in 462.00 W/m2
12:09 32.3 °F 24.9 °F 30.39 in NE 6.9 mph 4.8 mph 74% 0 in 459.00 W/m2
12:14 32.6 °F 24.9 °F 30.39 in North 9.2 mph 6.1 mph 73% 0 in 461.00 W/m2
12:19 32.8 °F 25.1 °F 30.39 in NNE 8.1 mph 3.5 mph 73% 0 in 457.00 W/m2
12:24 33 °F 25.3 °F 30.39 in NNE 5.8 mph 4.4 mph 73% 0 in 454.00 W/m2
12:29 33.2 °F 25.1 °F 30.39 in NNE 5.8 mph 4.3 mph 72% 0 in 450.00 W/m2
12:34 33.1 °F 24.7 °F 30.39 in NNE 8 mph 5.7 mph 71% 0 in 448.00 W/m2
12:39 33.3 °F 24.9 °F 30.38 in NNE 7 mph 4.7 mph 71% 0 in 443.00 W/m2
12:44 33.5 °F 25.1 °F 30.38 in North 5 mph 2.8 mph 71% 0 in 439.00 W/m2
12:49 33.7 °F 25 °F 30.38 in NNE 6.9 mph 5.3 mph 70% 0 in 432.00 W/m2
12:54 33.8 °F 25 °F 30.38 in North 8.1 mph 5 mph 70% 0 in 427.00 W/m2
12:59 33.8 °F 24.7 °F 30.38 in NNE 10.4 mph 4.6 mph 69% 0 in 422.00 W/m2
13:04 33.9 °F 24.8 °F 30.38 in NE 9 mph 6.1 mph 69% 0 in 415.00 W/m2
13:09 33.9 °F 24.8 °F 30.37 in NE 8.1 mph 4.3 mph 69% 0 in 411.00 W/m2
13:14 34.1 °F 24.6 °F 30.37 in North 5.8 mph 4 mph 68% 0 in 399.00 W/m2
13:19 34.1 °F 25 °F 30.37 in NNE 4 mph 3.5 mph 69% 0 in 399.00 W/m2
13:24 34.4 °F 24.6 °F 30.37 in NNE 6.9 mph 4.3 mph 67% 0 in 390.00 W/m2
13:29 34.4 °F 24.6 °F 30.37 in NNE 4 mph 2.7 mph 67% 0 in 380.00 W/m2
13:34 34.6 °F 25.1 °F 30.37 in North 5.8 mph 3.5 mph 68% 0 in 371.00 W/m2
13:39 34.6 °F 25.1 °F 30.37 in North 6.9 mph 5.2 mph 68% 0 in 362.00 W/m2
13:44 34.5 °F 24.7 °F 30.37 in North 5 mph 5.3 mph 67% 0 in 353.00 W/m2
13:49 34.5 °F 24.3 °F 30.37 in NNE 8 mph 3.4 mph 66% 0 in 345.00 W/m2
13:54 34.5 °F 24.7 °F 30.37 in NNW 5.8 mph 2.2 mph 67% 0 in 332.00 W/m2
13:59 34.6 °F 25.1 °F 30.37 in North 4 mph 3.2 mph 68% 0 in 323.00 W/m2
14:05 34.6 °F 24.8 °F 30.36 in NNE 5 mph 3.1 mph 67% 0 in 313.00 W/m2
14:09 34.5 °F 24.7 °F 30.36 in North 5.8 mph 3.9 mph 67% 0 in 304.00 W/m2
14:14 34.5 °F 24.3 °F 30.36 in NNE 5.8 mph 3.6 mph 66% 0 in 290.00 W/m2
14:19 34.7 °F 25.2 °F 30.36 in North 6 mph 3.6 mph 68% 0 in 279.00 W/m2
14:24 34.7 °F 24.5 °F 30.36 in North 4.6 mph 3.7 mph 66% 0 in 269.00 W/m2
14:29 34.5 °F 23.9 °F 30.36 in NNW 4.6 mph 3.2 mph 65% 0 in 255.00 W/m2
14:34 34.5 °F 24.7 °F 30.36 in NNE 5 mph 3.1 mph 67% 0 in 239.00 W/m2
14:39 34.4 °F 24.2 °F 30.36 in North 5.8 mph 3.2 mph 66% 0 in 225.00 W/m2
14:44 34.4 °F 24.6 °F 30.36 in NNE 4.6 mph 3.2 mph 67% 0 in 209.00 W/m2
14:49 34.4 °F 24.2 °F 30.36 in NNE 5.8 mph 3.7 mph 66% 0 in 193.00 W/m2
14:54 34.4 °F 24.2 °F 30.36 in NNE 3.5 mph 3.2 mph 66% 0 in 176.00 W/m2
14:59 34.4 °F 24.6 °F 30.36 in NNE 5.8 mph 3.4 mph 67% 0 in 167.00 W/m2
15:04 34.4 °F 24.6 °F 30.36 in North 6 mph 3.4 mph 67% 0 in 148.00 W/m2
15:09 34.3 °F 24.8 °F 30.36 in NNE 3.5 mph 2.6 mph 68% 0 in 132.00 W/m2
15:14 34.2 °F 24.7 °F 30.36 in North 5.8 mph 5.1 mph 68% 0 in 116.00 W/m2
15:19 33.9 °F 24.4 °F 30.36 in NNE 5.8 mph 3.4 mph 68% 0 in 100.00 W/m2
15:24 33.7 °F 24.6 °F 30.36 in NNE 4.6 mph 2.8 mph 69% 0 in 81.00 W/m2
15:29 33.4 °F 24.7 °F 30.36 in North 6 mph 4.1 mph 70% 0 in 44.00 W/m2
15:34 33 °F 25 °F 30.36 in NNE 3.5 mph 2.3 mph 72% 0 in 28.00 W/m2
15:39 32.7 °F 25 °F 30.35 in NNE 3.5 mph 1.4 mph 73% 0 in 26.00 W/m2
15:44 32.5 °F 25.1 °F 30.36 in NNE 3.5 mph 2.1 mph 74% 0 in 25.00 W/m2
15:49 32 °F 25 °F 30.35 in North 3.5 mph 2.3 mph 75% 0 in 23.00 W/m2
15:54 31.8 °F 24.8 °F 30.35 in North 3.5 mph 1.8 mph 75% 0 in 19.00 W/m2
15:59 31.6 °F 24.6 °F 30.35 in North 3.5 mph 2.3 mph 75% 0 in 18.00 W/m2
16:04 31.4 °F 24.7 °F 30.35 in North 3.5 mph 1.5 mph 76% 0 in 14.00 W/m2
16:09 31.2 °F 24.5 °F 30.35 in North 3.5 mph 1.7 mph 76% 0 in 11.00 W/m2
16:14 31 °F 24.6 °F 30.35 in North 3.5 mph 2.1 mph 77% 0 in 7.00 W/m2
16:19 31 °F 24.6 °F 30.35 in North 2.3 mph 0.5 mph 77% 0 in 0.00 W/m2
16:24 30.8 °F 24.4 °F 30.35 in North 2.3 mph 0.8 mph 77% 0 in 0.00 W/m2
16:29 30.7 °F 24 °F 30.35 in North 2.3 mph 0.5 mph 76% 0 in 0.00 W/m2
16:34 30.3 °F 23.6 °F 30.35 in Calm     76% 0 in 0.00 W/m2
16:39 29.7 °F 23.7 °F 30.35 in North 3.5 mph 1.4 mph 78% 0 in 0.00 W/m2
16:44 29.4 °F 23.7 °F 30.35 in Calm     79% 0 in 0.00 W/m2
16:49 29.2 °F 23.8 °F 30.35 in Calm     80% 0 in 0.00 W/m2
16:54 29 °F 23.9 °F 30.35 in Calm     81% 0 in 0.00 W/m2
16:59 28.8 °F 23.7 °F 30.34 in North 1 mph 0.7 mph 81% 0 in 0.00 W/m2
17:04 28.7 °F 23.6 °F 30.34 in North 3.5 mph 1.6 mph 81% 0 in 0.00 W/m2
17:09 28.7 °F 23.6 °F 30.34 in North 2.3 mph 1.1 mph 81% 0 in 0.00 W/m2
17:14 28.1 °F 22.1 °F 30.34 in Calm     78% 0 in 0.00 W/m2
17:19 27.5 °F 22.7 °F 30.34 in North 3.5 mph 1.2 mph 82% 0 in 0.00 W/m2
17:24 27.4 °F 22.9 °F 30.34 in North 3.5 mph 2.1 mph 83% 0 in 0.00 W/m2
17:29 27.5 °F 23.3 °F 30.34 in North 2.3 mph 1.2 mph 84% 0 in 0.00 W/m2
17:34 27.5 °F 23 °F 30.34 in North 2.3 mph 1.4 mph 83% 0 in 0.00 W/m2
17:39 27.3 °F 23.1 °F 30.34 in North 3.5 mph 2.3 mph 84% 0 in 0.00 W/m2
17:44 27.1 °F 22.9 °F 30.34 in North 3.5 mph 1.7 mph 84% 0 in 0.00 W/m2
17:49 27.1 °F 23.2 °F 30.34 in North 2.3 mph 1.2 mph 85% 0 in 0.00 W/m2
17:54 27 °F 23.1 °F 30.34 in North 2.3 mph 1.5 mph 85% 0 in 0.00 W/m2
17:59 26.8 °F 22.9 °F 30.35 in North 3.5 mph 2.1 mph 85% 0 in 0.00 W/m2
18:04 26.6 °F 22.7 °F 30.35 in North 3.5 mph 2.1 mph 85% 0 in 0.00 W/m2
18:09 26.4 °F 22.8 °F 30.35 in North 2.3 mph 1.9 mph 86% 0 in 0.00 W/m2
18:14 26.3 °F 22.7 °F 30.35 in North 2.3 mph 1.1 mph 86% 0 in 0.00 W/m2
18:19 26 °F 22.4 °F 30.35 in North 3.5 mph 1.8 mph 86% 0 in 0.00 W/m2
18:24 25.7 °F 22.1 °F 30.35 in North 2.3 mph 1.4 mph 86% 0 in 0.00 W/m2
18:29 25.4 °F 22.1 °F 30.35 in North 2.3 mph 1.6 mph 87% 0 in 0.00 W/m2
18:34 25.3 °F 22 °F 30.36 in North 3 mph 1.6 mph 87% 0 in 0.00 W/m2
18:39 25.3 °F 22.2 °F 30.36 in North 3.5 mph 2.1 mph 88% 0 in 0.00 W/m2
18:44 25.2 °F 22.1 °F 30.36 in North 3.5 mph 1.5 mph 88% 0 in 0.00 W/m2
18:49 25.1 °F 22 °F 30.36 in North 2.3 mph 1.7 mph 88% 0 in 0.00 W/m2
18:54 25 °F 21.9 °F 30.36 in Calm     88% 0 in 0.00 W/m2
18:59 24.9 °F 21.8 °F 30.36 in Calm     88% 0 in 0.00 W/m2
19:04 24.9 °F 21.8 °F 30.36 in North 2.3 mph 1.1 mph 88% 0 in 0.00 W/m2
19:09 24.9 °F 22.1 °F 30.36 in Calm     89% 0 in 0.00 W/m2
19:14 24.7 °F 21.7 °F 30.36 in North 2.3 mph 0.9 mph 88% 0 in 0.00 W/m2
19:19 24.5 °F 21.5 °F 30.36 in North 2.3 mph 0.6 mph 88% 0 in 0.00 W/m2
19:24 24.4 °F 21.4 °F 30.36 in Calm     88% 0 in 0.00 W/m2
19:29 24.4 °F 21.6 °F 30.36 in North 1.2 mph 1 mph 89% 0 in 0.00 W/m2
19:34 24.6 °F 21.8 °F 30.36 in Calm     89% 0 in 0.00 W/m2
19:39 24.7 °F 21.9 °F 30.36 in North 1.2 mph 0.7 mph 89% 0 in 0.00 W/m2
19:44 24.7 °F 21.9 °F 30.36 in North 1.2 mph 0.6 mph 89% 0 in 0.00 W/m2
19:49 24.7 °F 21.9 °F 30.36 in North 2.3 mph 1.1 mph 89% 0 in 0.00 W/m2
19:54 24.8 °F 22 °F 30.36 in North 1.2 mph 0.7 mph 89% 0 in 0.00 W/m2
19:59 24.9 °F 22.1 °F 30.36 in North 1.2 mph 1 mph 89% 0 in 0.00 W/m2
20:04 24.9 °F 22.1 °F 30.36 in Calm     89% 0 in 0.00 W/m2
20:09 24.9 °F 22.1 °F 30.36 in Calm     89% 0 in 0.00 W/m2
20:14 24.6 °F 21.6 °F 30.36 in North 2.3 mph 1.2 mph 88% 0 in 0.00 W/m2
20:19 24.6 °F 21.8 °F 30.36 in NNW 3.5 mph 1.7 mph 89% 0 in 0.00 W/m2
20:24 24.7 °F 21.9 °F 30.36 in NNW 3 mph 1.6 mph 89% 0 in 0.00 W/m2
20:29 24.6 °F 21.8 °F 30.36 in NNW 2.3 mph 1.4 mph 89% 0 in 0.00 W/m2
20:34 24.5 °F 21.7 °F 30.36 in NNW 1.2 mph 0.6 mph 89% 0 in 0.00 W/m2
20:39 24.4 °F 21.6 °F 30.36 in NNW 2.3 mph 1.2 mph 89% 0 in 0.00 W/m2
20:44 24.3 °F 21.5 °F 30.36 in NNW 2.3 mph 0.9 mph 89% 0 in 0.00 W/m2
20:49 24.3 °F 21.5 °F 30.36 in NNW 1.2 mph   89% 0 in 0.00 W/m2
20:54 24.2 °F 21.4 °F 30.36 in Calm     89% 0 in 0.00 W/m2
20:59 24.2 °F 21.4 °F 30.36 in NNW 1.2 mph   89% 0 in 0.00 W/m2
21:04 24 °F 21.2 °F 30.35 in Calm     89% 0 in 0.00 W/m2
21:09 24 °F 21.2 °F 30.36 in Calm     89% 0 in 0.00 W/m2
21:14 23.9 °F 21.1 °F 30.36 in Calm     89% 0 in 0.00 W/m2
21:19 23.8 °F 21 °F 30.36 in Calm     89% 0 in 0.00 W/m2
21:24 23.7 °F 20.9 °F 30.35 in NNW 2.3 mph   89% 0 in 0.00 W/m2
21:29 23.6 °F 20.8 °F 30.35 in NW 2.3 mph 1.6 mph 89% 0 in 0.00 W/m2
21:34 23.5 °F 20.7 °F 30.36 in NW 2.3 mph 1.2 mph 89% 0 in 0.00 W/m2
21:39 23.4 °F 20.6 °F 30.35 in NW 2.3 mph 1.4 mph 89% 0 in 0.00 W/m2
21:44 23.4 °F 20.6 °F 30.35 in NW 1.2 mph 0.5 mph 89% 0 in 0.00 W/m2
21:49 23.3 °F 20.5 °F 30.35 in NW 1.2 mph 0.5 mph 89% 0 in 0.00 W/m2
21:54 23.1 °F 20.1 °F 30.35 in NW 1.2 mph 0.1 mph 88% 0 in 0.00 W/m2
21:59 22.8 °F 19.8 °F 30.35 in NW 1.2 mph   88% 0 in 0.00 W/m2
22:04 22.6 °F 19.8 °F 30.35 in WNW 2.3 mph 0.3 mph 89% 0 in 0.00 W/m2
22:09 22.5 °F 19.7 °F 30.35 in WNW 1.2 mph 0.1 mph 89% 0 in 0.00 W/m2
22:14 22.5 °F 19.7 °F 30.35 in WNW 2.3 mph 0.2 mph 89% 0 in 0.00 W/m2
22:19 22.4 °F 19.6 °F 30.35 in WNW 1.2 mph   89% 0 in 0.00 W/m2
22:24 22.4 °F 19.6 °F 30.34 in WNW 2.3 mph 1 mph 89% 0 in 0.00 W/m2
22:29 22.4 °F 19.6 °F 30.34 in West 2.3 mph 1.2 mph 89% 0 in 0.00 W/m2
22:34 22.4 °F 19.6 °F 30.34 in West 1.2 mph 0.1 mph 89% 0 in 0.00 W/m2
22:39 21.5 °F 18.2 °F 30.35 in Calm     87% 0 in 0.00 W/m2
22:44 21.2 °F 18.2 °F 30.35 in Calm     88% 0 in 0.00 W/m2
22:49 20.6 °F 17.3 °F 30.35 in Calm     87% 0 in 0.00 W/m2
22:54 20.3 °F 17.3 °F 30.35 in Calm     88% 0 in 0.00 W/m2
22:59 20.4 °F 17.7 °F 30.35 in WSW 1 mph 0.2 mph 89% 0 in 0.00 W/m2
23:04 20.5 °F 17.8 °F 30.35 in West 1.2 mph 0.1 mph 89% 0 in 0.00 W/m2
23:09 20.7 °F 18.2 °F 30.35 in West 1.2 mph 0.5 mph 90% 0 in 0.00 W/m2
23:14 20.9 °F 18.4 °F 30.35 in West 1.2 mph 0.1 mph 90% 0 in 0.00 W/m2
23:19 21.1 °F 18.6 °F 30.35 in WNW 2.3 mph 0.4 mph 90% 0 in 0.00 W/m2
23:24 21.1 °F 18.6 °F 30.35 in WNW 2.3 mph 0.4 mph 90% 0 in 0.00 W/m2
23:29 21.2 °F 18.7 °F 30.35 in WNW 1.2 mph 0.3 mph 90% 0 in 0.00 W/m2
23:34 21.1 °F 18.6 °F 30.35 in Calm   0.1 mph 90% 0 in 0.00 W/m2
23:39 21.1 °F 18.6 °F 30.35 in Calm     90% 0 in 0.00 W/m2
23:44 20.9 °F 18.4 °F 30.34 in Calm     90% 0 in 0.00 W/m2
23:49 20.6 °F 17.9 °F 30.35 in Calm     89% 0 in 0.00 W/m2
23:54 20 °F 17 °F 30.35 in Calm     88% 0 in 0.00 W/m2
23:59 19.6 °F 16.4 °F 30.35 in Calm     87% 0 in 0.00 W/m2
Bourbonnais, Illinois, USA
Compliments of Weather Underground - 4 mb